createdAt,value
2023-09-27T00:00:00.647Z,12.70
2023-09-27T00:01:33.396Z,13.60
2023-09-27T00:03:05.516Z,13.60
2023-09-27T00:04:37.507Z,12.30
2023-09-27T00:06:09.764Z,11.80
2023-09-27T00:07:42.992Z,11.80
2023-09-27T00:09:15.932Z,13.90
2023-09-27T00:10:47.727Z,12.20
2023-09-27T00:12:19.607Z,14.00
2023-09-27T00:13:51.526Z,13.00
2023-09-27T00:15:24.311Z,14.40
2023-09-27T00:16:57.565Z,13.90
2023-09-27T00:18:29.381Z,13.10
2023-09-27T00:20:01.283Z,15.50
2023-09-27T00:21:33.102Z,12.20
2023-09-27T00:23:06.825Z,13.00
2023-09-27T00:24:40.252Z,12.50
2023-09-27T00:26:12.080Z,14.40
2023-09-27T00:27:44.528Z,15.40
2023-09-27T00:29:16.336Z,15.10
2023-09-27T00:30:52.029Z,11.90
2023-09-27T00:32:23.993Z,15.00
2023-09-27T00:33:55.895Z,13.40
2023-09-27T00:35:27.895Z,12.90
2023-09-27T00:37:00.150Z,14.00
2023-09-27T00:38:32.684Z,10.80
2023-09-27T00:40:11.491Z,15.20
2023-09-27T00:41:43.327Z,15.50
2023-09-27T00:43:33.373Z,15.60
2023-09-27T00:45:06.694Z,13.60
2023-09-27T00:46:41.542Z,15.40
2023-09-27T00:48:13.503Z,13.60
2023-09-27T00:49:45.817Z,14.90
2023-09-27T00:51:17.770Z,13.40
2023-09-27T00:52:50.684Z,15.50
2023-09-27T00:54:22.922Z,14.00
2023-09-27T00:55:56.714Z,13.90
2023-09-27T00:57:28.689Z,14.10
2023-09-27T00:59:00.560Z,12.60
2023-09-27T01:00:34.392Z,11.00
2023-09-27T01:02:07.607Z,13.50
2023-09-27T01:03:39.780Z,12.30
2023-09-27T01:05:12.583Z,12.80
2023-09-27T01:06:45.427Z,12.70
2023-09-27T01:08:17.287Z,13.70
2023-09-27T01:09:49.685Z,13.00
2023-09-27T01:11:21.638Z,12.30
2023-09-27T01:12:54.090Z,15.10
2023-09-27T01:14:26.058Z,13.90
2023-09-27T01:15:57.831Z,14.60
2023-09-27T01:17:29.736Z,14.40
2023-09-27T01:19:03.493Z,12.10
2023-09-27T01:20:35.469Z,13.10
2023-09-27T01:22:07.350Z,13.60
2023-09-27T01:23:42.214Z,12.20
2023-09-27T01:25:18.592Z,12.90
2023-09-27T01:26:50.463Z,14.40
2023-09-27T01:28:22.611Z,12.90
2023-09-27T01:29:54.407Z,13.70
2023-09-27T01:31:26.189Z,12.60
2023-09-27T01:32:58.947Z,14.00
2023-09-27T01:34:32.774Z,13.70
2023-09-27T01:36:05.681Z,13.70
2023-09-27T01:37:37.590Z,12.50
2023-09-27T01:39:09.699Z,14.80
2023-09-27T01:40:46.463Z,14.30
2023-09-27T01:42:18.182Z,16.30
2023-09-27T01:43:50.047Z,14.40
2023-09-27T01:45:21.946Z,14.60
2023-09-27T01:46:56.157Z,15.70
2023-09-27T01:48:28.126Z,14.20
2023-09-27T01:49:59.982Z,12.50
2023-09-27T01:51:32.478Z,13.50
2023-09-27T01:53:04.820Z,14.20
2023-09-27T01:54:36.745Z,15.40
2023-09-27T01:56:08.557Z,14.20
2023-09-27T01:57:41.653Z,15.00
2023-09-27T01:59:13.989Z,14.00
2023-09-27T02:00:46.002Z,14.80
2023-09-27T02:02:17.836Z,13.40
2023-09-27T02:03:49.843Z,14.30
2023-09-27T02:05:21.744Z,14.10
2023-09-27T02:06:53.703Z,13.80
2023-09-27T02:08:25.586Z,13.20
2023-09-27T02:09:57.486Z,12.30
2023-09-27T02:11:29.325Z,15.40
2023-09-27T02:13:01.118Z,13.40
2023-09-27T02:14:32.895Z,15.70
2023-09-27T02:16:04.970Z,14.20
2023-09-27T02:17:42.552Z,14.50
2023-09-27T02:19:14.720Z,14.70
2023-09-27T02:20:46.867Z,18.20
2023-09-27T02:22:19.667Z,14.10
2023-09-27T02:23:51.983Z,12.70
2023-09-27T02:25:24.325Z,15.40
2023-09-27T02:26:56.090Z,15.50
2023-09-27T02:28:30.599Z,15.00
2023-09-27T02:30:04.692Z,14.00
2023-09-27T02:31:36.823Z,15.60
2023-09-27T02:33:08.773Z,13.80
2023-09-27T02:34:41.178Z,12.40
2023-09-27T02:36:13.038Z,13.60
2023-09-27T02:37:45.548Z,14.00
2023-09-27T02:39:17.354Z,13.40
2023-09-27T02:40:49.249Z,14.40
2023-09-27T02:42:21.370Z,15.20
2023-09-27T02:43:53.331Z,14.80
2023-09-27T02:45:25.280Z,15.50
2023-09-27T02:46:57.170Z,14.20
2023-09-27T02:48:30.294Z,15.90
2023-09-27T02:50:11.103Z,15.40
2023-09-27T02:51:43.131Z,15.90
2023-09-27T02:53:15.200Z,14.80
2023-09-27T02:54:48.607Z,15.10
2023-09-27T02:56:20.413Z,19.50
2023-09-27T02:57:54.339Z,15.30
2023-09-27T02:59:30.625Z,13.70
2023-09-27T03:01:02.499Z,14.60
2023-09-27T03:02:35.232Z,15.90
2023-09-27T03:04:08.934Z,14.00
2023-09-27T03:05:42.101Z,15.20
2023-09-27T03:07:15.278Z,15.70
2023-09-27T03:08:49.456Z,17.40
2023-09-27T03:10:22.601Z,14.90
2023-09-27T03:11:54.696Z,15.60
2023-09-27T03:13:27.376Z,17.70
2023-09-27T03:14:59.243Z,16.00
2023-09-27T03:16:31.335Z,15.80
2023-09-27T03:18:04.785Z,14.70
2023-09-27T03:19:36.661Z,16.30
2023-09-27T03:21:08.419Z,15.10
2023-09-27T03:22:40.213Z,17.50
2023-09-27T03:24:12.027Z,16.60
2023-09-27T03:25:43.870Z,14.30
2023-09-27T03:27:16.166Z,17.10
2023-09-27T03:28:48.123Z,15.60
2023-09-27T03:30:20.224Z,17.30
2023-09-27T03:31:52.061Z,18.70
2023-09-27T03:33:23.940Z,16.30
2023-09-27T03:34:56.275Z,17.00
2023-09-27T03:36:29.413Z,16.70
2023-09-27T03:38:01.265Z,17.50
2023-09-27T03:39:36.887Z,16.20
2023-09-27T03:41:11.128Z,16.80
2023-09-27T03:42:45.867Z,16.60
2023-09-27T03:44:18.059Z,16.10
2023-09-27T03:45:50.800Z,14.20
2023-09-27T03:47:22.792Z,15.80
2023-09-27T03:48:54.950Z,14.30
2023-09-27T03:50:27.003Z,16.30
2023-09-27T03:51:58.775Z,18.20
2023-09-27T03:53:32.883Z,18.90
2023-09-27T03:55:05.197Z,17.90
2023-09-27T03:56:37.985Z,15.50
2023-09-27T03:58:09.827Z,17.20
2023-09-27T03:59:41.655Z,16.80
2023-09-27T04:01:13.592Z,15.90
2023-09-27T04:02:46.337Z,17.70
2023-09-27T04:04:19.593Z,16.60
2023-09-27T04:05:52.546Z,16.20
2023-09-27T04:07:24.408Z,18.40
2023-09-27T04:08:56.182Z,17.20
2023-09-27T04:10:30.511Z,15.70
2023-09-27T04:12:02.371Z,16.80
2023-09-27T04:13:34.090Z,15.60
2023-09-27T04:15:10.447Z,15.00
2023-09-27T04:16:43.245Z,14.60
2023-09-27T04:18:15.000Z,17.30
2023-09-27T04:19:46.864Z,18.70
2023-09-27T04:21:18.716Z,17.60
2023-09-27T04:22:51.026Z,15.60
2023-09-27T04:24:24.411Z,16.40
2023-09-27T04:25:56.599Z,15.80
2023-09-27T04:27:28.384Z,19.40
2023-09-27T04:29:01.460Z,15.80
2023-09-27T04:30:33.509Z,16.00
2023-09-27T04:32:05.518Z,14.90
2023-09-27T04:33:37.454Z,15.00
2023-09-27T04:35:09.935Z,15.40
2023-09-27T04:36:41.754Z,16.30
2023-09-27T04:38:13.727Z,15.10
2023-09-27T04:39:45.486Z,14.50
2023-09-27T04:41:19.221Z,17.80
2023-09-27T04:42:51.132Z,16.10
2023-09-27T04:44:23.021Z,19.40
2023-09-27T04:45:54.810Z,17.80
2023-09-27T04:47:26.731Z,17.30
2023-09-27T04:48:58.630Z,15.90
2023-09-27T04:50:30.407Z,17.80
2023-09-27T04:52:02.186Z,17.10
2023-09-27T04:53:38.474Z,14.30
2023-09-27T04:55:11.084Z,15.30
2023-09-27T04:56:42.970Z,15.90
2023-09-27T04:58:14.864Z,16.20
2023-09-27T04:59:46.594Z,16.40
2023-09-27T05:01:18.467Z,17.00
2023-09-27T05:02:53.340Z,15.10
2023-09-27T05:04:25.487Z,16.10
2023-09-27T05:05:57.283Z,19.60
2023-09-27T05:07:30.720Z,17.90
2023-09-27T05:09:02.969Z,16.10
2023-09-27T05:10:34.688Z,15.70
2023-09-27T05:12:07.132Z,19.50
2023-09-27T05:13:39.027Z,20.60
2023-09-27T05:15:11.272Z,18.10
2023-09-27T05:16:43.057Z,16.80
2023-09-27T05:18:15.196Z,19.90
2023-09-27T05:19:46.967Z,19.60
2023-09-27T05:21:18.824Z,19.20
2023-09-27T05:22:50.948Z,16.90
2023-09-27T05:24:22.925Z,18.40
2023-09-27T05:25:54.832Z,21.00
2023-09-27T05:27:26.641Z,20.10
2023-09-27T05:28:58.485Z,16.80
2023-09-27T05:30:30.339Z,16.40
2023-09-27T05:32:03.274Z,20.10
2023-09-27T05:33:35.081Z,15.70
2023-09-27T05:35:07.480Z,19.20
2023-09-27T05:36:41.636Z,20.70
2023-09-27T05:38:13.533Z,22.60
2023-09-27T05:39:45.558Z,17.70
2023-09-27T05:41:17.374Z,19.60
2023-09-27T05:42:49.247Z,18.20
2023-09-27T05:44:21.335Z,20.50
2023-09-27T05:45:53.935Z,19.90
2023-09-27T05:47:25.848Z,20.20
2023-09-27T05:48:57.843Z,18.10
2023-09-27T05:50:29.881Z,18.10
2023-09-27T05:52:03.368Z,20.10
2023-09-27T05:53:35.335Z,17.10
2023-09-27T05:55:08.434Z,18.00
2023-09-27T05:56:40.397Z,17.30
2023-09-27T05:58:12.344Z,18.10
2023-09-27T05:59:46.353Z,16.30
2023-09-27T06:01:22.241Z,18.00
2023-09-27T06:02:54.277Z,17.90
2023-09-27T06:04:26.422Z,16.50
2023-09-27T06:05:59.751Z,17.60
2023-09-27T06:07:32.591Z,16.20
2023-09-27T06:09:10.521Z,19.50
2023-09-27T06:10:42.396Z,17.10
2023-09-27T06:12:14.187Z,19.50
2023-09-27T06:13:46.026Z,19.20
2023-09-27T06:15:18.744Z,18.10
2023-09-27T06:16:52.021Z,16.80
2023-09-27T06:18:24.790Z,19.50
2023-09-27T06:21:44.362Z,18.40
2023-09-27T06:23:16.245Z,16.10
2023-09-27T06:24:48.292Z,14.60
2023-09-27T06:26:20.126Z,15.50
2023-09-27T06:27:52.933Z,15.70
2023-09-27T06:29:24.937Z,16.90
2023-09-27T06:30:58.351Z,16.60
2023-09-27T06:32:31.346Z,17.00
2023-09-27T06:34:03.485Z,14.20
2023-09-27T06:35:35.351Z,18.60
2023-09-27T06:37:08.535Z,16.20
2023-09-27T06:38:41.745Z,20.70
2023-09-27T06:40:17.719Z,16.70
2023-09-27T06:41:49.660Z,18.40
2023-09-27T06:43:21.413Z,15.90
2023-09-27T06:44:53.183Z,17.00
2023-09-27T06:46:27.738Z,13.50
2023-09-27T06:48:01.953Z,15.60
2023-09-27T06:49:33.884Z,13.50
2023-09-27T06:51:06.961Z,17.40
2023-09-27T06:52:41.215Z,18.90
2023-09-27T06:54:12.992Z,17.80
2023-09-27T06:55:46.012Z,16.40
2023-09-27T06:57:17.989Z,16.10
2023-09-27T06:58:53.437Z,13.20
2023-09-27T07:00:26.030Z,15.70
2023-09-27T07:01:57.918Z,14.80
2023-09-27T07:03:34.873Z,16.40
2023-09-27T07:05:07.238Z,15.30
2023-09-27T07:06:39.187Z,16.00
2023-09-27T07:08:11.820Z,15.60
2023-09-27T07:09:43.983Z,14.50
2023-09-27T07:11:15.913Z,14.30
2023-09-27T07:12:47.983Z,18.30
2023-09-27T07:14:21.264Z,15.10
2023-09-27T07:15:53.385Z,15.50
2023-09-27T07:17:26.381Z,12.70
2023-09-27T07:19:02.114Z,15.40
2023-09-27T07:20:36.167Z,15.20
2023-09-27T07:22:11.503Z,15.20
2023-09-27T07:23:43.352Z,18.20
2023-09-27T07:25:19.874Z,17.40
2023-09-27T07:26:53.810Z,20.90
2023-09-27T07:28:26.055Z,16.50
2023-09-27T07:29:57.775Z,15.90
2023-09-27T07:31:30.961Z,15.30
2023-09-27T07:33:13.410Z,14.80
2023-09-27T07:34:45.615Z,16.60
2023-09-27T07:36:18.756Z,16.10
2023-09-27T07:37:50.883Z,14.30
2023-09-27T07:39:23.893Z,15.70
2023-09-27T07:40:55.755Z,18.50
2023-09-27T07:42:27.609Z,15.40
2023-09-27T07:44:00.220Z,16.70
2023-09-27T07:45:35.629Z,17.20
2023-09-27T07:47:08.098Z,17.80
2023-09-27T07:48:42.666Z,17.80
2023-09-27T07:50:14.764Z,17.80
2023-09-27T07:51:46.821Z,15.80
2023-09-27T07:53:21.235Z,15.50
2023-09-27T07:54:53.080Z,13.60
2023-09-27T07:56:27.611Z,15.80
2023-09-27T07:58:01.134Z,15.20
2023-09-27T07:59:33.035Z,14.60
2023-09-27T08:01:06.056Z,13.00
2023-09-27T08:02:39.380Z,13.30
2023-09-27T08:04:14.055Z,14.90
2023-09-27T08:05:46.348Z,13.50
2023-09-27T08:07:20.005Z,13.90
2023-09-27T08:08:53.401Z,11.20
2023-09-27T08:10:25.944Z,13.40
2023-09-27T08:11:57.929Z,11.60
2023-09-27T08:13:31.353Z,13.60
2023-09-27T08:15:05.096Z,12.10
2023-09-27T08:16:37.212Z,11.70
2023-09-27T08:18:09.338Z,12.10
2023-09-27T08:19:41.185Z,11.40
2023-09-27T08:21:13.101Z,10.30
2023-09-27T08:22:44.931Z,14.50
2023-09-27T08:24:18.397Z,12.40
2023-09-27T08:25:50.260Z,13.00
2023-09-27T08:27:22.074Z,12.40
2023-09-27T08:28:54.219Z,12.40
2023-09-27T08:30:26.307Z,13.20
2023-09-27T08:31:58.141Z,13.30
2023-09-27T08:33:30.019Z,12.00
2023-09-27T08:35:06.427Z,11.10
2023-09-27T08:36:38.488Z,13.00
2023-09-27T08:38:10.377Z,12.00
2023-09-27T08:39:43.323Z,10.60
2023-09-27T08:41:16.875Z,10.60
2023-09-27T08:42:52.403Z,11.00
2023-09-27T08:44:25.449Z,10.40
2023-09-27T08:45:57.502Z,11.70
2023-09-27T08:47:31.918Z,11.20
2023-09-27T08:49:04.945Z,11.30
2023-09-27T08:50:38.345Z,11.40
2023-09-27T08:52:10.496Z,9.20
2023-09-27T08:53:43.510Z,11.00
2023-09-27T08:55:18.845Z,10.10
2023-09-27T08:56:52.667Z,9.10
2023-09-27T08:58:26.744Z,11.20
2023-09-27T08:59:58.696Z,10.20
2023-09-27T09:01:34.366Z,9.70
2023-09-27T09:03:06.576Z,10.30
2023-09-27T09:04:39.044Z,11.10
2023-09-27T09:06:14.191Z,8.60
2023-09-27T09:07:46.741Z,8.30
2023-09-27T09:09:18.682Z,9.50
2023-09-27T09:10:50.855Z,9.40
2023-09-27T09:12:22.588Z,11.00
2023-09-27T09:14:05.718Z,9.60
2023-09-27T09:15:42.885Z,9.90
2023-09-27T09:17:19.459Z,7.90
2023-09-27T09:18:56.554Z,9.30
2023-09-27T09:20:34.297Z,6.90
2023-09-27T09:22:12.575Z,9.90
2023-09-27T09:23:48.898Z,9.40
2023-09-27T09:25:23.964Z,9.40
2023-09-27T09:27:09.888Z,9.00
2023-09-27T09:29:01.804Z,8.80
2023-09-27T09:30:42.026Z,8.90
2023-09-27T09:32:17.129Z,8.00
2023-09-27T09:34:13.234Z,8.20
2023-09-27T09:35:46.107Z,8.50
2023-09-27T09:37:22.740Z,7.10
2023-09-27T09:38:54.734Z,9.70
2023-09-27T09:40:26.911Z,8.40
2023-09-27T09:42:01.568Z,8.70
2023-09-27T09:43:37.998Z,7.60
2023-09-27T09:45:13.608Z,9.30
2023-09-27T09:46:46.046Z,8.70
2023-09-27T09:48:18.699Z,8.50
2023-09-27T09:49:51.919Z,7.80
2023-09-27T09:51:25.375Z,8.20
2023-09-27T09:52:59.768Z,8.30
2023-09-27T09:54:54.881Z,9.50
2023-09-27T09:56:50.302Z,8.30
2023-09-27T09:59:05.869Z,8.10
2023-09-27T10:00:47.546Z,8.90
2023-09-27T10:02:28.342Z,9.20
2023-09-27T10:04:05.705Z,10.10
2023-09-27T10:05:40.301Z,9.60
2023-09-27T10:07:15.963Z,10.20
2023-09-27T10:08:49.666Z,10.10
2023-09-27T10:10:23.370Z,9.00
2023-09-27T10:11:57.349Z,8.40
2023-09-27T10:13:29.772Z,9.60
2023-09-27T10:15:05.366Z,7.90
2023-09-27T10:16:39.270Z,11.00
2023-09-27T10:18:23.315Z,8.50
2023-09-27T10:20:15.605Z,8.20
2023-09-27T10:22:09.321Z,9.10
2023-09-27T10:23:47.352Z,7.80
2023-09-27T10:25:25.358Z,10.20
2023-09-27T10:26:57.241Z,8.80
2023-09-27T10:28:29.413Z,8.80
2023-09-27T10:30:02.179Z,10.80
2023-09-27T10:31:58.745Z,9.70
2023-09-27T10:33:31.539Z,9.70
2023-09-27T10:35:19.628Z,9.50
2023-09-27T10:37:04.183Z,9.20
2023-09-27T10:38:46.269Z,11.00
2023-09-27T10:40:23.089Z,9.10
2023-09-27T10:41:55.387Z,9.20
2023-09-27T10:43:36.614Z,8.90
2023-09-27T10:45:10.738Z,8.80
2023-09-27T10:46:46.940Z,9.30
2023-09-27T10:48:21.377Z,7.50
2023-09-27T10:49:53.112Z,10.70
2023-09-27T10:51:27.643Z,9.30
2023-09-27T10:53:00.551Z,10.20
2023-09-27T10:54:33.359Z,9.10
2023-09-27T10:56:05.770Z,8.50
2023-09-27T10:57:40.591Z,9.10
2023-09-27T10:59:14.853Z,9.50
2023-09-27T11:01:01.751Z,8.50
2023-09-27T11:02:33.903Z,9.60
2023-09-27T11:04:06.593Z,8.50
2023-09-27T11:05:38.444Z,9.50
2023-09-27T11:07:10.358Z,8.20
2023-09-27T11:08:42.367Z,8.70
2023-09-27T11:10:34.440Z,8.80
2023-09-27T11:12:06.478Z,7.60
2023-09-27T11:13:47.206Z,8.90
2023-09-27T11:15:24.562Z,7.80
2023-09-27T11:16:56.465Z,7.30
2023-09-27T11:18:28.680Z,6.80
2023-09-27T11:20:13.113Z,7.40
2023-09-27T11:21:45.959Z,9.10
2023-09-27T11:23:21.047Z,7.60
2023-09-27T11:24:52.985Z,8.70
2023-09-27T11:26:30.974Z,9.80
2023-09-27T11:28:03.636Z,8.50
2023-09-27T11:29:36.526Z,6.70
2023-09-27T11:31:08.593Z,8.80
2023-09-27T11:32:53.814Z,7.80
2023-09-27T11:34:26.194Z,8.20
2023-09-27T11:35:57.967Z,7.20
2023-09-27T11:37:29.841Z,8.40
2023-09-27T11:39:01.647Z,8.50
2023-09-27T11:40:35.980Z,9.20
2023-09-27T11:42:07.964Z,9.50
2023-09-27T11:43:39.889Z,7.80
2023-09-27T11:45:15.196Z,8.60
2023-09-27T11:46:50.846Z,8.70
2023-09-27T11:48:34.748Z,8.10
2023-09-27T11:50:07.531Z,8.40
2023-09-27T11:51:39.775Z,8.90
2023-09-27T11:53:12.297Z,9.20
2023-09-27T11:54:46.688Z,7.70
2023-09-27T11:56:18.739Z,9.80
2023-09-27T11:57:50.503Z,8.70
2023-09-27T11:59:22.392Z,9.20
2023-09-27T12:00:54.226Z,9.80
2023-09-27T12:02:29.669Z,8.70
2023-09-27T12:04:06.970Z,7.70
2023-09-27T12:05:39.511Z,8.50
2023-09-27T12:07:12.052Z,11.10
2023-09-27T12:08:44.262Z,7.90
2023-09-27T12:10:17.450Z,8.60
2023-09-27T12:11:49.721Z,6.80
2023-09-27T12:13:21.512Z,10.00
2023-09-27T12:14:54.017Z,9.60
2023-09-27T12:16:27.398Z,8.50
2023-09-27T12:17:59.439Z,9.70
2023-09-27T12:19:35.574Z,8.30
2023-09-27T12:21:07.470Z,7.30
2023-09-27T12:22:39.302Z,8.20
2023-09-27T12:24:11.112Z,8.80
2023-09-27T12:25:43.240Z,7.80
2023-09-27T12:27:15.868Z,7.60
2023-09-27T12:28:47.589Z,7.30
2023-09-27T12:30:19.503Z,6.20
2023-09-27T12:31:51.262Z,7.80
2023-09-27T12:33:23.191Z,7.30
2023-09-27T12:34:55.163Z,8.90
2023-09-27T12:36:27.176Z,8.50
2023-09-27T12:38:00.770Z,6.60
2023-09-27T12:39:32.568Z,7.30
2023-09-27T12:41:09.178Z,7.50
2023-09-27T12:42:41.209Z,9.10
2023-09-27T12:44:21.439Z,8.40
2023-09-27T12:45:56.482Z,9.90
2023-09-27T12:47:28.319Z,8.30
2023-09-27T12:49:00.538Z,9.40
2023-09-27T12:50:32.572Z,10.40
2023-09-27T12:52:04.576Z,10.10
2023-09-27T12:53:36.503Z,9.90
2023-09-27T12:55:10.450Z,7.60
2023-09-27T12:56:42.228Z,9.90
2023-09-27T12:58:15.261Z,8.20
2023-09-27T12:59:48.421Z,7.60
2023-09-27T13:01:20.699Z,9.10
2023-09-27T13:02:52.708Z,8.80
2023-09-27T13:04:24.604Z,10.20
2023-09-27T13:05:56.592Z,7.30
2023-09-27T13:07:28.469Z,8.40
2023-09-27T13:09:00.305Z,9.80
2023-09-27T13:10:36.233Z,8.60
2023-09-27T13:12:09.732Z,6.70
2023-09-27T13:13:41.508Z,6.70
2023-09-27T13:15:13.435Z,9.70
2023-09-27T13:16:46.275Z,6.90
2023-09-27T13:18:18.114Z,7.30
2023-09-27T13:19:53.035Z,5.40
2023-09-27T13:21:25.952Z,8.80
2023-09-27T13:22:57.700Z,7.80
2023-09-27T13:24:29.695Z,6.70
2023-09-27T13:26:01.480Z,11.00
2023-09-27T13:27:33.231Z,7.00
2023-09-27T13:29:05.461Z,6.50
2023-09-27T13:30:37.916Z,6.30
2023-09-27T13:32:10.389Z,5.40
2023-09-27T13:33:46.407Z,3.80
2023-09-27T13:35:20.712Z,4.10
2023-09-27T13:36:53.210Z,3.60
2023-09-27T13:38:26.965Z,5.00
2023-09-27T13:40:00.519Z,4.60
2023-09-27T13:41:45.225Z,4.10
2023-09-27T13:43:17.426Z,5.40
2023-09-27T13:44:49.466Z,3.80
2023-09-27T13:46:21.703Z,4.70
2023-09-27T13:47:54.013Z,4.50
2023-09-27T13:49:25.894Z,3.70
2023-09-27T13:50:57.892Z,4.00
2023-09-27T13:52:29.774Z,3.80
2023-09-27T13:54:03.510Z,4.90
2023-09-27T13:55:35.316Z,5.50
2023-09-27T13:57:08.433Z,4.60
2023-09-27T13:58:40.628Z,4.10
2023-09-27T14:00:14.756Z,4.60
2023-09-27T14:01:46.953Z,4.10
2023-09-27T14:03:18.865Z,5.50
2023-09-27T14:04:50.816Z,4.10
2023-09-27T14:06:22.639Z,3.90
2023-09-27T14:07:54.596Z,5.30
2023-09-27T14:09:26.451Z,5.80
2023-09-27T14:10:58.332Z,4.60
2023-09-27T14:12:30.912Z,4.50
2023-09-27T14:14:04.168Z,4.20
2023-09-27T14:15:37.182Z,3.70
2023-09-27T14:17:09.077Z,6.30
2023-09-27T14:18:44.106Z,3.80
2023-09-27T14:20:18.202Z,5.80
2023-09-27T14:21:52.864Z,3.70
2023-09-27T14:23:24.685Z,3.80
2023-09-27T14:25:02.596Z,3.50
2023-09-27T14:26:34.920Z,5.10
2023-09-27T14:28:06.889Z,4.70
2023-09-27T14:29:39.473Z,5.00
2023-09-27T14:31:11.658Z,4.10
2023-09-27T14:32:44.323Z,5.70
2023-09-27T14:34:16.316Z,5.30
2023-09-27T14:37:23.035Z,4.00
2023-09-27T14:39:00.425Z,4.00
2023-09-27T14:40:33.307Z,6.90
2023-09-27T14:42:05.419Z,2.80
2023-09-27T14:43:40.310Z,4.50
2023-09-27T14:45:28.430Z,5.50
2023-09-27T14:47:04.294Z,4.80
2023-09-27T14:48:36.197Z,6.00
2023-09-27T14:50:08.797Z,4.90
2023-09-27T14:51:40.773Z,4.00
2023-09-27T14:53:12.782Z,4.90
2023-09-27T14:54:44.634Z,5.90
2023-09-27T14:56:18.415Z,5.70
2023-09-27T14:57:50.245Z,4.20
2023-09-27T14:59:22.015Z,5.30
2023-09-27T15:00:53.903Z,4.40
2023-09-27T15:02:27.532Z,6.30
2023-09-27T15:03:59.514Z,5.00
2023-09-27T15:05:31.641Z,5.50
2023-09-27T15:07:04.063Z,5.60
2023-09-27T15:08:35.960Z,4.70
2023-09-27T15:10:09.030Z,4.30
2023-09-27T15:11:40.796Z,5.70
2023-09-27T15:13:15.896Z,5.90
2023-09-27T15:14:47.715Z,5.60
2023-09-27T15:16:20.447Z,4.00
2023-09-27T15:17:52.499Z,4.30
2023-09-27T15:19:24.366Z,4.50
2023-09-27T15:20:57.333Z,4.90
2023-09-27T15:22:29.107Z,6.40
2023-09-27T15:24:01.210Z,5.80
2023-09-27T15:25:33.035Z,7.90
2023-09-27T15:27:04.906Z,5.50
2023-09-27T15:28:36.778Z,4.90
2023-09-27T15:30:11.784Z,4.80
2023-09-27T15:31:44.905Z,6.50
2023-09-27T15:33:17.092Z,8.50
2023-09-27T15:34:49.063Z,6.00
2023-09-27T15:36:21.039Z,6.20
2023-09-27T15:37:54.961Z,6.30
2023-09-27T15:39:26.814Z,8.60
2023-09-27T15:40:58.731Z,5.20
2023-09-27T15:42:30.750Z,5.10
2023-09-27T15:44:02.532Z,6.00
2023-09-27T15:45:34.949Z,6.50
2023-09-27T15:47:08.347Z,6.10
2023-09-27T15:48:40.492Z,7.60
2023-09-27T15:50:13.170Z,5.80
2023-09-27T15:51:45.663Z,6.50
2023-09-27T15:53:17.693Z,6.70
2023-09-27T15:54:49.454Z,5.80
2023-09-27T15:56:21.603Z,5.00
2023-09-27T15:57:54.479Z,6.30
2023-09-27T15:59:26.610Z,7.50
2023-09-27T16:01:05.625Z,6.00
2023-09-27T16:02:37.495Z,6.50
2023-09-27T16:04:11.328Z,7.30
2023-09-27T16:05:50.493Z,6.10
2023-09-27T16:07:22.262Z,7.80
2023-09-27T16:08:54.445Z,6.70
2023-09-27T16:10:27.134Z,8.60
2023-09-27T16:11:58.982Z,4.90
2023-09-27T16:13:31.495Z,5.60
2023-09-27T16:15:03.484Z,6.20
2023-09-27T16:16:36.551Z,5.40
2023-09-27T16:18:08.379Z,6.80
2023-09-27T16:19:40.237Z,5.70
2023-09-27T16:21:12.280Z,5.20
2023-09-27T16:22:44.154Z,6.30
2023-09-27T16:24:16.899Z,8.80
2023-09-27T16:25:49.697Z,6.60
2023-09-27T16:27:21.748Z,6.30
2023-09-27T16:28:53.580Z,9.90
2023-09-27T16:30:26.152Z,7.80
2023-09-27T16:31:58.706Z,6.60
2023-09-27T16:33:30.833Z,6.70
2023-09-27T16:35:02.684Z,6.20
2023-09-27T16:36:35.706Z,6.70
2023-09-27T16:38:07.603Z,6.50
2023-09-27T16:39:39.382Z,6.10
2023-09-27T16:41:11.155Z,6.60
2023-09-27T16:42:42.917Z,6.20
2023-09-27T16:44:14.752Z,10.40
2023-09-27T16:45:46.655Z,5.90
2023-09-27T16:47:18.421Z,6.10
2023-09-27T16:48:50.272Z,6.40
2023-09-27T16:50:22.879Z,7.30
2023-09-27T16:51:54.668Z,17.20
2023-09-27T16:53:26.559Z,7.10
2023-09-27T16:54:59.792Z,8.20
2023-09-27T16:56:32.624Z,7.10
2023-09-27T16:58:06.204Z,7.30
2023-09-27T16:59:38.096Z,7.70
2023-09-27T17:01:19.071Z,6.40
2023-09-27T17:02:50.969Z,7.70
2023-09-27T17:04:22.943Z,9.60
2023-09-27T17:05:54.795Z,7.50
2023-09-27T17:07:34.250Z,7.50
2023-09-27T17:09:06.352Z,8.70
2023-09-27T17:10:38.297Z,8.00
2023-09-27T17:12:10.368Z,7.10
2023-09-27T17:13:42.512Z,8.40
2023-09-27T17:15:14.521Z,7.40
2023-09-27T17:16:47.630Z,7.60
2023-09-27T17:18:19.527Z,9.70
2023-09-27T17:19:51.533Z,10.40
2023-09-27T17:21:28.577Z,6.20
2023-09-27T17:23:00.493Z,10.10
2023-09-27T17:24:32.306Z,7.40
2023-09-27T17:26:07.374Z,7.90
2023-09-27T17:27:39.244Z,7.10
2023-09-27T17:29:10.957Z,8.30
2023-09-27T17:30:42.715Z,8.50
2023-09-27T17:32:14.513Z,7.60
2023-09-27T17:33:49.285Z,8.50
2023-09-27T17:35:21.892Z,7.40
2023-09-27T17:36:53.850Z,8.80
2023-09-27T17:38:26.544Z,11.30
2023-09-27T17:39:58.314Z,8.90
2023-09-27T17:41:30.234Z,9.50
2023-09-27T17:43:02.055Z,8.90
2023-09-27T17:44:34.226Z,9.00
2023-09-27T17:46:25.630Z,8.80
2023-09-27T17:47:57.723Z,11.50
2023-09-27T17:49:30.160Z,9.70
2023-09-27T17:51:01.955Z,8.10
2023-09-27T17:52:34.689Z,9.00
2023-09-27T17:54:08.387Z,9.30
2023-09-27T17:55:40.360Z,10.20
2023-09-27T17:57:12.247Z,9.30
2023-09-27T17:58:44.558Z,12.10
2023-09-27T18:00:16.845Z,9.90
2023-09-27T18:01:49.505Z,11.20
2023-09-27T18:03:22.077Z,12.20
2023-09-27T18:04:54.196Z,11.80
2023-09-27T18:06:26.115Z,11.80
2023-09-27T18:07:57.958Z,12.20
2023-09-27T18:09:30.330Z,11.80
2023-09-27T18:11:12.989Z,11.00
2023-09-27T18:12:44.787Z,11.70
2023-09-27T18:14:17.114Z,10.30
2023-09-27T18:15:48.941Z,9.70
2023-09-27T18:17:20.781Z,9.00
2023-09-27T18:18:54.135Z,10.80
2023-09-27T18:20:26.126Z,10.40
2023-09-27T18:21:57.936Z,11.90
2023-09-27T18:23:29.780Z,10.70
2023-09-27T18:25:01.639Z,10.20
2023-09-27T18:26:33.509Z,10.30
2023-09-27T18:28:05.972Z,11.50
2023-09-27T18:29:37.800Z,10.40
2023-09-27T18:31:10.039Z,13.80
2023-09-27T18:32:41.817Z,12.10
2023-09-27T18:34:14.991Z,11.90
2023-09-27T18:35:47.783Z,13.50
2023-09-27T18:37:19.646Z,10.70
2023-09-27T18:38:51.879Z,11.00
2023-09-27T18:40:23.948Z,12.70
2023-09-27T18:41:56.501Z,12.80
2023-09-27T18:43:28.454Z,12.10
2023-09-27T18:45:00.288Z,12.90
2023-09-27T18:46:32.248Z,13.80
2023-09-27T18:48:09.248Z,13.40
2023-09-27T18:49:41.470Z,15.80
2023-09-27T18:51:13.435Z,12.30
2023-09-27T18:52:45.433Z,14.60
2023-09-27T18:54:17.257Z,12.40
2023-09-27T18:55:49.100Z,13.50
2023-09-27T18:57:22.033Z,12.10
2023-09-27T18:58:59.727Z,12.70
2023-09-27T19:00:33.187Z,12.70
2023-09-27T19:02:05.330Z,12.10
2023-09-27T19:03:37.368Z,12.10
2023-09-27T19:05:10.219Z,12.70
2023-09-27T19:06:42.196Z,13.80
2023-09-27T19:08:14.013Z,13.60
2023-09-27T19:09:47.493Z,12.80
2023-09-27T19:11:21.173Z,12.80
2023-09-27T19:12:53.214Z,12.90
2023-09-27T19:14:25.178Z,14.10
2023-09-27T19:15:57.193Z,14.40
2023-09-27T19:17:29.077Z,13.30
2023-09-27T19:19:00.928Z,16.00
2023-09-27T19:20:33.399Z,12.90
2023-09-27T19:22:05.254Z,13.20
2023-09-27T19:23:40.255Z,17.60
2023-09-27T19:25:12.739Z,14.40
2023-09-27T19:26:44.604Z,15.20
2023-09-27T19:28:16.467Z,14.40
2023-09-27T19:29:48.251Z,14.90
2023-09-27T19:31:20.158Z,13.30
2023-09-27T19:32:54.316Z,14.80
2023-09-27T19:34:26.125Z,15.30
2023-09-27T19:35:57.902Z,15.70
2023-09-27T19:37:29.692Z,17.80
2023-09-27T19:39:01.588Z,14.80
2023-09-27T19:40:33.732Z,14.80
2023-09-27T19:42:06.031Z,14.90
2023-09-27T19:43:37.839Z,17.00
2023-09-27T19:45:11.176Z,15.00
2023-09-27T19:46:43.026Z,16.80
2023-09-27T19:48:14.925Z,15.90
2023-09-27T19:49:46.856Z,15.00
2023-09-27T19:51:28.194Z,16.70
2023-09-27T19:53:00.408Z,16.40
2023-09-27T19:54:37.325Z,14.60
2023-09-27T19:56:09.100Z,15.70
2023-09-27T19:57:40.936Z,12.60
2023-09-27T19:59:12.878Z,16.00
2023-09-27T20:00:45.311Z,13.80
2023-09-27T20:02:17.364Z,11.20
2023-09-27T20:03:49.339Z,11.40
2023-09-27T20:05:21.391Z,9.80
2023-09-27T20:06:54.217Z,10.40
2023-09-27T20:08:27.422Z,9.60
2023-09-27T20:09:59.152Z,7.30
2023-09-27T20:11:31.957Z,8.40
2023-09-27T20:13:03.995Z,9.00
2023-09-27T20:14:35.730Z,10.80
2023-09-27T20:16:07.577Z,7.20
2023-09-27T20:17:40.585Z,7.10
2023-09-27T20:19:12.519Z,6.10
2023-09-27T20:20:44.403Z,6.50
2023-09-27T20:22:16.266Z,6.70